createdAt,value
2023-01-19T00:00:49.235Z,1.52
2023-01-19T00:03:19.300Z,1.35
2023-01-19T00:05:46.955Z,0.32
2023-01-19T00:08:17.395Z,0.68
2023-01-19T00:10:45.007Z,2.50
2023-01-19T00:13:13.147Z,0.90
2023-01-19T00:15:39.613Z,0.40
2023-01-19T00:18:06.294Z,1.02
2023-01-19T00:20:33.319Z,0.35
2023-01-19T00:23:00.378Z,0.75
2023-01-19T00:25:27.049Z,3.78
2023-01-19T00:27:53.970Z,1.50
2023-01-19T00:30:20.990Z,0.30
2023-01-19T00:32:47.887Z,0.20
2023-01-19T00:35:14.834Z,1.30
2023-01-19T00:37:41.729Z,1.05
2023-01-19T00:40:08.820Z,0.47
2023-01-19T00:42:41.265Z,1.27
2023-01-19T00:45:08.508Z,0.25
2023-01-19T00:47:34.932Z,1.30
2023-01-19T00:50:01.415Z,1.83
2023-01-19T00:52:27.843Z,1.65
2023-01-19T00:54:54.250Z,1.90
2023-01-19T00:57:21.133Z,0.90
2023-01-19T00:59:47.544Z,0.88
2023-01-19T01:02:14.169Z,2.15
2023-01-19T01:04:41.215Z,2.40
2023-01-19T01:07:07.643Z,0.75
2023-01-19T01:09:34.089Z,1.08
2023-01-19T01:12:01.100Z,0.45
2023-01-19T01:14:27.560Z,1.23
2023-01-19T01:16:55.200Z,1.52
2023-01-19T01:19:21.701Z,1.17
2023-01-19T01:21:48.170Z,1.17
2023-01-19T01:24:14.633Z,0.60
2023-01-19T01:26:41.050Z,1.92
2023-01-19T01:29:08.462Z,1.10
2023-01-19T01:31:34.994Z,0.70
2023-01-19T01:34:01.950Z,0.75
2023-01-19T01:36:31.836Z,0.40
2023-01-19T01:38:58.793Z,0.68
2023-01-19T01:41:27.288Z,2.08
2023-01-19T01:43:56.573Z,1.23
2023-01-19T01:46:24.004Z,0.20
2023-01-19T01:48:50.398Z,1.33
2023-01-19T01:51:26.104Z,1.95
2023-01-19T01:54:01.153Z,0.32
2023-01-19T01:56:32.303Z,1.25
2023-01-19T01:58:59.859Z,2.83
2023-01-19T02:01:45.144Z,0.82
2023-01-19T02:04:11.752Z,1.60
2023-01-19T02:06:57.077Z,1.50
2023-01-19T02:09:42.693Z,2.40
2023-01-19T02:12:27.531Z,2.75
2023-01-19T02:14:55.464Z,2.70
2023-01-19T02:17:22.067Z,1.50
2023-01-19T02:19:49.063Z,3.55
2023-01-19T02:22:26.060Z,2.65
2023-01-19T02:24:52.885Z,4.75
2023-01-19T02:27:20.234Z,2.45
2023-01-19T02:29:47.139Z,1.90
2023-01-19T02:32:13.580Z,8.05
2023-01-19T02:34:40.820Z,3.10
2023-01-19T02:37:10.070Z,5.82
2023-01-19T02:39:39.564Z,4.63
2023-01-19T02:42:23.482Z,1.88
2023-01-19T02:44:51.815Z,8.20
2023-01-19T02:47:18.542Z,4.50
2023-01-19T02:49:46.294Z,3.47
2023-01-19T02:52:16.018Z,2.17
2023-01-19T02:54:57.235Z,4.40
2023-01-19T02:57:43.765Z,3.35
2023-01-19T03:00:49.439Z,3.55
2023-01-19T03:03:34.425Z,3.88
2023-01-19T03:06:05.897Z,4.25
2023-01-19T03:08:51.161Z,2.97
2023-01-19T03:11:18.443Z,2.45
2023-01-19T03:14:01.905Z,4.53
2023-01-19T03:16:50.902Z,2.00
2023-01-19T03:19:23.703Z,1.73
2023-01-19T03:21:53.787Z,2.97
2023-01-19T03:24:26.586Z,4.80
2023-01-19T03:27:01.618Z,2.42
2023-01-19T03:29:31.928Z,3.17
2023-01-19T03:32:03.589Z,6.55
2023-01-19T03:34:30.601Z,6.35
2023-01-19T03:37:02.457Z,3.60
2023-01-19T03:39:29.729Z,2.75
2023-01-19T03:42:09.362Z,3.60
2023-01-19T03:44:40.400Z,2.58
2023-01-19T03:47:08.881Z,5.28
2023-01-19T03:49:40.260Z,1.65
2023-01-19T03:52:10.525Z,5.63
2023-01-19T03:54:39.346Z,3.92
2023-01-19T03:57:06.372Z,4.10
2023-01-19T03:59:35.450Z,6.03
2023-01-19T04:02:04.332Z,4.90
2023-01-19T04:04:31.443Z,7.88
2023-01-19T04:06:58.720Z,3.28
2023-01-19T04:09:28.525Z,8.52
2023-01-19T04:11:55.997Z,4.72
2023-01-19T04:14:23.166Z,7.00
2023-01-19T04:16:53.203Z,7.45
2023-01-19T04:19:19.637Z,6.25
2023-01-19T04:21:48.208Z,2.65
2023-01-19T04:24:17.877Z,5.35
2023-01-19T04:26:47.938Z,8.63
2023-01-19T04:29:17.917Z,5.30
2023-01-19T04:31:45.053Z,3.35
2023-01-19T04:34:12.048Z,5.75
2023-01-19T04:36:42.165Z,5.25
2023-01-19T04:39:09.240Z,5.70
2023-01-19T04:41:35.772Z,3.83
2023-01-19T04:44:05.136Z,3.90
2023-01-19T04:46:31.977Z,3.58
2023-01-19T04:48:59.113Z,10.02
2023-01-19T04:51:29.939Z,7.32
2023-01-19T04:53:57.888Z,2.42
2023-01-19T04:56:25.040Z,2.72
2023-01-19T04:58:51.555Z,5.45
2023-01-19T05:01:21.220Z,4.30
2023-01-19T05:03:49.514Z,4.38
2023-01-19T05:06:16.527Z,8.40
2023-01-19T05:08:45.383Z,5.97
2023-01-19T05:11:12.024Z,3.50
2023-01-19T05:13:39.030Z,5.60
2023-01-19T05:16:09.348Z,5.88
2023-01-19T05:18:39.116Z,10.05
2023-01-19T05:21:08.366Z,7.18
2023-01-19T05:23:35.192Z,6.88
2023-01-19T05:26:04.597Z,6.88
2023-01-19T05:28:35.438Z,9.02
2023-01-19T05:31:04.129Z,6.35
2023-01-19T05:33:30.900Z,6.80
2023-01-19T05:35:58.873Z,7.68
2023-01-19T05:38:35.378Z,7.47
2023-01-19T05:41:05.168Z,7.38
2023-01-19T05:43:32.980Z,9.57
2023-01-19T05:46:01.139Z,5.43
2023-01-19T05:48:28.028Z,5.10
2023-01-19T05:50:57.884Z,6.90
2023-01-19T05:53:27.844Z,8.80
2023-01-19T05:55:59.816Z,8.73
2023-01-19T05:58:29.687Z,5.78
2023-01-19T06:00:56.669Z,5.53
2023-01-19T06:03:26.815Z,4.93
2023-01-19T06:05:53.543Z,4.88
2023-01-19T06:08:22.385Z,6.22
2023-01-19T06:10:49.342Z,6.15
2023-01-19T06:13:18.214Z,6.88
2023-01-19T06:15:45.732Z,7.80
2023-01-19T06:18:18.316Z,4.70
2023-01-19T06:20:45.083Z,7.22
2023-01-19T06:23:14.361Z,3.80
2023-01-19T06:25:46.843Z,6.75
2023-01-19T06:28:13.354Z,7.97
2023-01-19T06:30:42.317Z,8.52
2023-01-19T06:33:09.263Z,7.57
2023-01-19T06:35:39.744Z,4.63
2023-01-19T06:38:08.530Z,6.38
2023-01-19T06:40:35.213Z,5.20
2023-01-19T06:43:05.305Z,10.43
2023-01-19T06:45:31.860Z,7.35
2023-01-19T06:48:00.959Z,6.47
2023-01-19T06:50:27.954Z,9.27
2023-01-19T06:52:57.267Z,5.70
2023-01-19T06:55:27.717Z,7.13
2023-01-19T06:58:01.807Z,8.80
2023-01-19T07:00:29.013Z,9.63
2023-01-19T07:02:57.942Z,8.77
2023-01-19T07:05:26.612Z,7.32
2023-01-19T07:07:57.160Z,8.50
2023-01-19T07:10:25.323Z,6.13
2023-01-19T07:12:52.446Z,9.60
2023-01-19T07:15:22.687Z,8.93
2023-01-19T07:17:51.561Z,7.35
2023-01-19T07:20:22.301Z,7.15
2023-01-19T07:22:57.129Z,4.95
2023-01-19T07:25:26.818Z,8.13
2023-01-19T07:28:00.200Z,7.90
2023-01-19T07:30:29.824Z,6.10
2023-01-19T07:33:00.508Z,5.25
2023-01-19T07:35:27.755Z,7.68
2023-01-19T07:37:59.652Z,3.55
2023-01-19T07:40:26.642Z,5.60
2023-01-19T07:42:53.258Z,4.60
2023-01-19T07:45:23.544Z,6.47
2023-01-19T07:47:52.658Z,9.60
2023-01-19T07:50:24.033Z,5.88
2023-01-19T07:52:53.508Z,4.53
2023-01-19T07:55:24.260Z,7.30
2023-01-19T07:57:51.810Z,4.93
2023-01-19T08:00:21.852Z,3.50
2023-01-19T08:02:51.148Z,4.85
2023-01-19T08:05:19.004Z,3.38
2023-01-19T08:07:48.544Z,5.63
2023-01-19T08:10:18.403Z,3.25
2023-01-19T08:12:45.008Z,4.45
2023-01-19T08:15:12.480Z,3.15
2023-01-19T08:17:39.075Z,4.45
2023-01-19T08:20:06.717Z,4.07
2023-01-19T08:22:33.214Z,4.03
2023-01-19T08:25:02.373Z,1.88
2023-01-19T08:27:29.630Z,3.75
2023-01-19T08:29:56.173Z,4.45
2023-01-19T08:32:22.895Z,2.95
2023-01-19T08:34:52.080Z,5.40
2023-01-19T08:37:22.644Z,3.03
2023-01-19T08:39:50.211Z,3.72
2023-01-19T08:42:17.174Z,4.85
2023-01-19T08:44:57.318Z,4.35
2023-01-19T08:47:26.325Z,4.07
2023-01-19T08:49:52.877Z,4.38
2023-01-19T08:52:19.455Z,2.30
2023-01-19T08:54:45.980Z,2.17
2023-01-19T08:57:14.617Z,4.38
2023-01-19T08:59:41.297Z,0.82
2023-01-19T09:02:10.538Z,2.40
2023-01-19T09:04:38.153Z,2.63
2023-01-19T09:09:39.880Z,1.52
2023-01-19T09:12:08.605Z,1.67
2023-01-19T09:14:36.782Z,1.38
2023-01-19T09:17:05.639Z,1.48
2023-01-19T09:19:34.262Z,1.90
2023-01-19T09:22:03.309Z,2.33
2023-01-19T09:24:32.526Z,1.75
2023-01-19T09:26:59.630Z,1.95
2023-01-19T09:29:27.807Z,2.75
2023-01-19T09:31:57.183Z,2.50
2023-01-19T09:34:29.332Z,3.40
2023-01-19T09:36:59.578Z,3.55
2023-01-19T09:39:29.078Z,2.67
2023-01-19T09:42:11.087Z,2.50
2023-01-19T09:44:38.402Z,1.95
2023-01-19T09:47:19.948Z,2.67
2023-01-19T09:49:49.621Z,3.08
2023-01-19T09:52:23.485Z,1.67
2023-01-19T09:54:59.540Z,2.35
2023-01-19T09:57:27.498Z,3.38
2023-01-19T10:00:01.215Z,1.60
2023-01-19T10:02:42.845Z,1.75
2023-01-19T10:05:12.260Z,1.40
2023-01-19T10:07:44.488Z,1.42
2023-01-19T10:10:30.024Z,2.42
2023-01-19T10:13:00.367Z,1.98
2023-01-19T10:15:50.272Z,1.35
2023-01-19T10:18:19.142Z,3.35
2023-01-19T10:21:02.618Z,2.83
2023-01-19T10:23:49.436Z,1.40
2023-01-19T10:26:40.958Z,2.03
2023-01-19T10:29:28.275Z,0.50
2023-01-19T10:32:07.627Z,1.20
2023-01-19T10:34:34.876Z,5.20
2023-01-19T10:37:07.372Z,1.17
2023-01-19T10:39:38.732Z,2.30
2023-01-19T10:42:06.805Z,4.00
2023-01-19T10:44:37.146Z,2.83
2023-01-19T10:47:08.550Z,2.20
2023-01-19T10:49:42.007Z,1.02
2023-01-19T10:52:20.556Z,3.08
2023-01-19T10:54:50.913Z,1.17
2023-01-19T10:57:25.904Z,4.85
2023-01-19T10:59:52.497Z,2.20
2023-01-19T11:02:29.104Z,3.53
2023-01-19T11:04:57.071Z,3.65
2023-01-19T11:07:30.823Z,2.60
2023-01-19T11:10:12.725Z,3.42
2023-01-19T11:12:50.274Z,5.85
2023-01-19T11:15:24.057Z,1.15
2023-01-19T11:17:51.389Z,2.85
2023-01-19T11:20:22.752Z,1.23
2023-01-19T11:22:51.806Z,3.55
2023-01-19T11:25:31.141Z,2.42
2023-01-19T11:28:11.282Z,1.63
2023-01-19T11:31:30.565Z,2.40
2023-01-19T11:34:34.321Z,0.73
2023-01-19T11:37:04.083Z,1.48
2023-01-19T11:39:37.570Z,1.48
2023-01-19T11:42:14.680Z,1.92
2023-01-19T11:45:03.082Z,3.35
2023-01-19T11:47:49.793Z,1.92
2023-01-19T11:51:06.153Z,2.13
2023-01-19T11:53:34.921Z,2.22
2023-01-19T11:56:05.201Z,2.45
2023-01-19T11:58:33.901Z,0.95
2023-01-19T12:01:14.691Z,2.05
2023-01-19T12:03:45.065Z,3.80
2023-01-19T12:06:14.243Z,0.90
2023-01-19T12:08:40.757Z,1.60
2023-01-19T12:11:11.413Z,2.30
2023-01-19T12:13:40.813Z,1.92
2023-01-19T12:16:11.451Z,0.45
2023-01-19T12:19:00.904Z,2.47
2023-01-19T12:21:33.401Z,2.45
2023-01-19T12:24:03.635Z,2.83
2023-01-19T12:26:51.790Z,1.83
2023-01-19T12:29:47.818Z,1.33
2023-01-19T12:32:21.825Z,1.70
2023-01-19T12:34:54.830Z,1.83
2023-01-19T12:37:29.979Z,1.25
2023-01-19T12:39:57.957Z,1.58
2023-01-19T12:42:25.155Z,1.23
2023-01-19T12:45:10.782Z,2.30
2023-01-19T12:47:37.700Z,2.13
2023-01-19T12:50:15.628Z,0.85
2023-01-19T12:53:00.576Z,2.00
2023-01-19T12:55:31.149Z,1.10
2023-01-19T12:58:07.243Z,1.08
2023-01-19T13:00:34.993Z,0.95
2023-01-19T13:03:03.280Z,0.82
2023-01-19T13:05:33.537Z,3.58
2023-01-19T13:08:03.438Z,1.13
2023-01-19T13:11:08.525Z,1.65
2023-01-19T13:13:38.596Z,0.57
2023-01-19T13:16:25.113Z,1.40
2023-01-19T13:19:00.715Z,1.20
2023-01-19T13:21:27.844Z,2.75
2023-01-19T13:23:57.721Z,2.22
2023-01-19T13:26:28.662Z,2.85
2023-01-19T13:29:00.075Z,1.73
2023-01-19T13:31:34.093Z,2.95
2023-01-19T13:34:02.273Z,2.00
2023-01-19T13:36:36.922Z,2.75
2023-01-19T13:39:08.349Z,3.08
2023-01-19T13:41:39.182Z,2.38
2023-01-19T13:44:18.413Z,2.13
2023-01-19T13:46:48.497Z,2.70
2023-01-19T13:49:21.910Z,2.10
2023-01-19T13:52:08.401Z,2.17
2023-01-19T13:54:36.556Z,0.75
2023-01-19T13:57:05.067Z,0.65
2023-01-19T13:59:31.738Z,0.88
2023-01-19T14:02:04.379Z,1.10
2023-01-19T14:04:34.437Z,1.40
2023-01-19T14:07:16.425Z,1.38
2023-01-19T14:09:44.825Z,2.90
2023-01-19T14:12:19.159Z,2.40
2023-01-19T14:14:49.720Z,2.75
2023-01-19T14:17:23.526Z,1.30
2023-01-19T14:19:51.278Z,1.25
2023-01-19T14:22:20.738Z,0.77
2023-01-19T14:24:47.343Z,1.70
2023-01-19T14:27:19.883Z,2.88
2023-01-19T14:29:48.839Z,1.27
2023-01-19T14:35:23.241Z,1.33
2023-01-19T14:38:10.088Z,0.88
2023-01-19T14:40:40.550Z,1.08
2023-01-19T14:43:14.168Z,0.50
2023-01-19T14:45:47.646Z,1.60
2023-01-19T14:48:41.524Z,0.93
2023-01-19T14:51:24.288Z,1.63
2023-01-19T14:54:16.056Z,1.85
2023-01-19T14:56:44.611Z,0.50
2023-01-19T14:59:15.125Z,0.90
2023-01-19T15:01:58.813Z,3.33
2023-01-19T15:04:26.290Z,1.25
2023-01-19T15:06:52.854Z,0.70
2023-01-19T15:09:19.447Z,0.98
2023-01-19T15:11:47.880Z,0.45
2023-01-19T15:14:15.699Z,2.13
2023-01-19T15:16:42.808Z,0.75
2023-01-19T15:19:16.004Z,1.00
2023-01-19T15:21:45.062Z,0.90
2023-01-19T15:24:15.888Z,1.80
2023-01-19T15:26:44.835Z,1.40
2023-01-19T15:29:25.516Z,0.70
2023-01-19T15:31:55.195Z,2.15
2023-01-19T15:34:21.961Z,1.48
2023-01-19T15:36:48.853Z,0.85
2023-01-19T15:39:20.142Z,0.95
2023-01-19T15:41:46.931Z,1.70
2023-01-19T15:44:13.423Z,1.80
2023-01-19T15:46:41.216Z,1.50
2023-01-19T15:49:09.932Z,0.52
2023-01-19T15:51:43.809Z,1.73
2023-01-19T15:54:15.527Z,1.23
2023-01-19T15:56:47.963Z,0.52
2023-01-19T15:59:18.112Z,2.60
2023-01-19T16:01:46.344Z,0.32
2023-01-19T16:04:13.757Z,1.13
2023-01-19T16:06:49.010Z,1.52
2023-01-19T16:09:22.876Z,0.45
2023-01-19T16:11:52.294Z,1.10
2023-01-19T16:14:21.930Z,1.63
2023-01-19T16:16:51.532Z,1.42
2023-01-19T16:19:19.712Z,0.90
2023-01-19T16:21:51.446Z,1.90
2023-01-19T16:24:25.175Z,1.17
2023-01-19T16:26:51.836Z,0.80
2023-01-19T16:29:18.558Z,1.13
2023-01-19T16:31:49.892Z,0.70
2023-01-19T16:34:16.746Z,1.58
2023-01-19T16:36:43.326Z,0.28
2023-01-19T16:39:16.905Z,1.00
2023-01-19T16:41:52.162Z,0.93
2023-01-19T16:44:19.547Z,1.55
2023-01-19T16:47:05.056Z,1.42
2023-01-19T16:49:40.182Z,0.45
2023-01-19T16:52:08.673Z,0.65
2023-01-19T16:54:46.723Z,1.23
2023-01-19T16:57:18.355Z,0.73
2023-01-19T16:59:47.565Z,0.60
2023-01-19T17:02:19.803Z,1.40
2023-01-19T17:04:52.110Z,2.05
2023-01-19T17:07:25.274Z,0.98
2023-01-19T17:10:00.034Z,0.90
2023-01-19T17:15:30.586Z,0.98
2023-01-19T17:17:59.959Z,2.42
2023-01-19T17:20:30.830Z,1.27
2023-01-19T17:23:24.831Z,3.03
2023-01-19T17:26:03.665Z,1.77
2023-01-19T17:29:29.501Z,2.78
2023-01-19T17:31:34.055Z,3.30
2023-01-19T17:34:05.647Z,3.55
2023-01-19T17:36:36.698Z,3.13
2023-01-19T17:39:07.913Z,3.50
2023-01-19T17:41:47.519Z,4.10
2023-01-19T17:44:21.916Z,3.47
2023-01-19T17:46:50.647Z,4.20
2023-01-19T17:49:21.759Z,3.60
2023-01-19T17:51:55.737Z,2.85
2023-01-19T17:54:29.793Z,4.95
2023-01-19T17:57:01.959Z,4.75
2023-01-19T17:59:31.134Z,4.13
2023-01-19T18:02:00.290Z,4.95
2023-01-19T18:04:28.903Z,2.95
2023-01-19T18:06:57.837Z,2.45
2023-01-19T18:09:27.726Z,3.40
2023-01-19T18:11:57.753Z,5.20
2023-01-19T18:14:30.054Z,3.83
2023-01-19T18:16:59.676Z,6.63
2023-01-19T18:19:28.311Z,4.32
2023-01-19T18:21:58.328Z,4.50
2023-01-19T18:24:27.643Z,5.60
2023-01-19T18:26:55.980Z,4.03
2023-01-19T18:29:28.991Z,3.05
2023-01-19T18:32:00.429Z,4.90
2023-01-19T18:34:27.655Z,4.10
2023-01-19T18:36:55.859Z,3.53
2023-01-19T18:39:22.988Z,4.22
2023-01-19T18:41:52.141Z,4.40
2023-01-19T18:44:19.457Z,3.15
2023-01-19T18:46:46.506Z,4.38
2023-01-19T18:49:13.725Z,2.92
2023-01-19T18:51:41.591Z,4.13
2023-01-19T18:54:08.817Z,4.10
2023-01-19T18:56:38.387Z,3.17
2023-01-19T18:59:05.228Z,4.80
2023-01-19T19:01:36.176Z,5.63
2023-01-19T19:04:05.599Z,4.63
2023-01-19T19:06:32.252Z,4.45
2023-01-19T19:09:03.843Z,2.63
2023-01-19T19:11:30.631Z,3.67
2023-01-19T19:13:59.584Z,3.85
2023-01-19T19:16:26.636Z,2.00
2023-01-19T19:18:53.259Z,6.03
2023-01-19T19:21:27.883Z,4.32
2023-01-19T19:23:58.405Z,5.32
2023-01-19T19:26:28.415Z,3.17
2023-01-19T19:28:55.727Z,2.25
2023-01-19T19:31:30.219Z,4.38
2023-01-19T19:33:57.448Z,2.67
2023-01-19T19:36:26.041Z,3.47
2023-01-19T19:38:54.897Z,3.72
2023-01-19T19:41:30.620Z,3.40
2023-01-19T19:43:58.765Z,3.45
2023-01-19T19:46:30.569Z,3.38
2023-01-19T19:48:57.215Z,3.25
2023-01-19T19:51:31.187Z,3.05
2023-01-19T19:53:59.154Z,5.10
2023-01-19T19:56:30.570Z,3.20
2023-01-19T19:58:59.272Z,3.40
2023-01-19T20:01:34.027Z,2.25
2023-01-19T20:04:04.869Z,2.85
2023-01-19T20:06:37.331Z,3.25
2023-01-19T20:09:08.747Z,3.30
2023-01-19T20:11:35.498Z,4.35
2023-01-19T20:14:06.411Z,3.05
2023-01-19T20:16:33.129Z,3.53
2023-01-19T20:19:00.257Z,2.08
2023-01-19T20:21:35.885Z,2.05
2023-01-19T20:24:06.764Z,2.20
2023-01-19T20:26:35.223Z,3.42
2023-01-19T20:29:06.213Z,2.85
2023-01-19T20:31:34.484Z,2.33
2023-01-19T20:34:05.337Z,3.42
2023-01-19T20:36:34.717Z,2.63
2023-01-19T20:39:02.884Z,4.85
2023-01-19T20:41:32.169Z,4.18
2023-01-19T20:43:58.754Z,2.40
2023-01-19T20:46:25.505Z,3.50
2023-01-19T20:49:00.143Z,3.65
2023-01-19T20:51:31.151Z,5.57
2023-01-19T20:54:00.447Z,3.25
2023-01-19T20:56:29.763Z,3.05
2023-01-19T20:59:02.881Z,3.80
2023-01-19T21:01:29.424Z,2.72
2023-01-19T21:03:56.489Z,2.17
2023-01-19T21:06:30.033Z,3.38
2023-01-19T21:08:57.601Z,2.33
2023-01-19T21:14:09.171Z,3.67
2023-01-19T21:16:39.444Z,2.63
2023-01-19T21:19:06.239Z,2.92
2023-01-19T21:21:35.248Z,2.38
2023-01-19T21:24:05.805Z,2.95
2023-01-19T21:26:35.750Z,2.60
2023-01-19T21:29:05.231Z,2.03
2023-01-19T21:31:34.182Z,2.50
2023-01-19T21:34:06.602Z,2.55
2023-01-19T21:36:33.845Z,2.22
2023-01-19T21:39:01.252Z,2.47
2023-01-19T21:41:35.612Z,1.98
2023-01-19T21:44:02.660Z,4.25
2023-01-19T21:46:34.552Z,2.58
2023-01-19T21:49:02.842Z,2.88
2023-01-19T21:51:33.425Z,2.53
2023-01-19T21:54:02.908Z,2.85
2023-01-19T21:56:32.882Z,2.72
2023-01-19T21:59:02.336Z,2.05
2023-01-19T22:01:38.421Z,3.05
2023-01-19T22:04:09.263Z,2.30
2023-01-19T22:06:38.250Z,2.10
2023-01-19T22:09:05.621Z,1.83
2023-01-19T22:11:40.290Z,1.95
2023-01-19T22:14:07.474Z,2.72
2023-01-19T22:16:54.213Z,1.95
2023-01-19T22:22:44.939Z,1.75
2023-01-19T22:25:13.785Z,1.63
2023-01-19T22:27:42.966Z,2.45
2023-01-19T22:30:10.242Z,2.38
2023-01-19T22:32:39.780Z,2.05
2023-01-19T22:35:10.037Z,2.00
2023-01-19T22:37:39.830Z,2.38
2023-01-19T22:40:07.445Z,1.60
2023-01-19T22:42:36.186Z,2.30
2023-01-19T22:45:03.744Z,1.80
2023-01-19T22:47:37.667Z,1.70
2023-01-19T22:50:07.488Z,2.03
2023-01-19T22:52:39.039Z,1.92
2023-01-19T22:55:08.372Z,1.27
2023-01-19T22:57:41.065Z,2.47
2023-01-19T23:00:13.034Z,1.80
2023-01-19T23:02:42.314Z,1.75
2023-01-19T23:05:09.096Z,2.25
2023-01-19T23:07:40.596Z,3.97
2023-01-19T23:10:08.859Z,1.88
2023-01-19T23:12:38.126Z,1.02
2023-01-19T23:15:05.506Z,1.50
2023-01-19T23:17:35.620Z,1.10
2023-01-19T23:20:02.447Z,2.88
2023-01-19T23:22:32.030Z,1.52
2023-01-19T23:24:58.726Z,1.45
2023-01-19T23:27:26.806Z,2.08
2023-01-19T23:29:58.582Z,1.35
2023-01-19T23:32:28.530Z,1.42
2023-01-19T23:34:55.229Z,1.40
2023-01-19T23:37:21.764Z,1.00
2023-01-19T23:39:51.840Z,1.70
2023-01-19T23:42:18.377Z,1.25
2023-01-19T23:44:45.462Z,1.38
2023-01-19T23:47:13.885Z,5.20
2023-01-19T23:49:43.781Z,1.08
2023-01-19T23:52:10.245Z,1.63
2023-01-19T23:54:43.265Z,1.50
2023-01-19T23:57:10.358Z,1.38
2023-01-19T23:59:40.293Z,1.35
